createdAt,value
2019-05-16T00:03:07.898Z,11.70
2019-05-16T00:08:12.525Z,12.47
2019-05-16T00:13:18.452Z,11.18
2019-05-16T00:18:21.516Z,11.75
2019-05-16T00:23:25.198Z,9.50
2019-05-16T00:28:28.942Z,9.18
2019-05-16T00:33:32.507Z,10.98
2019-05-16T00:38:37.842Z,12.05
2019-05-16T00:43:41.371Z,10.10
2019-05-16T00:48:45.025Z,11.97
2019-05-16T00:53:48.736Z,13.18
2019-05-16T00:58:53.232Z,12.15
2019-05-16T01:03:58.615Z,11.90
2019-05-16T01:09:02.703Z,14.05
2019-05-16T01:14:08.466Z,14.80
2019-05-16T01:19:31.207Z,13.15
2019-05-16T01:24:35.032Z,14.43
2019-05-16T01:29:38.681Z,14.20
2019-05-16T01:34:42.269Z,15.13
2019-05-16T01:39:48.266Z,16.55
2019-05-16T01:44:51.186Z,17.62
2019-05-16T01:49:54.739Z,15.70
2019-05-16T01:54:58.801Z,16.85
2019-05-16T02:00:02.417Z,16.20
2019-05-16T02:05:08.298Z,13.13
2019-05-16T02:10:13.332Z,14.68
2019-05-16T02:15:18.223Z,14.23
2019-05-16T02:20:22.164Z,16.62
2019-05-16T02:25:27.678Z,16.77
2019-05-16T02:30:31.618Z,16.52
2019-05-16T02:35:35.435Z,19.02
2019-05-16T02:40:41.745Z,14.55
2019-05-16T02:45:44.504Z,20.35
2019-05-16T02:50:51.074Z,15.00
2019-05-16T02:55:53.603Z,19.75
2019-05-16T03:00:57.191Z,17.57
2019-05-16T03:06:02.051Z,16.10
2019-05-16T03:11:05.757Z,21.82
2019-05-16T03:16:11.988Z,21.42
2019-05-16T03:21:15.828Z,22.45
2019-05-16T03:26:21.047Z,21.60
2019-05-16T03:31:25.453Z,23.27
2019-05-16T03:36:34.237Z,23.35
2019-05-16T03:41:34.712Z,20.62
2019-05-16T03:46:41.358Z,20.62
2019-05-16T03:51:43.523Z,17.67
2019-05-16T03:56:47.119Z,22.22
2019-05-16T04:01:51.376Z,19.60
2019-05-16T04:06:55.345Z,21.73
2019-05-16T04:12:01.813Z,22.58
2019-05-16T04:17:04.311Z,22.87
2019-05-16T04:22:11.044Z,23.18
2019-05-16T04:27:14.768Z,23.20
2019-05-16T04:32:21.053Z,21.73
2019-05-16T04:37:26.311Z,23.67
2019-05-16T04:42:31.293Z,23.50
2019-05-16T04:47:35.240Z,24.45
2019-05-16T04:52:41.913Z,24.95
2019-05-16T04:57:44.378Z,21.02
2019-05-16T05:02:47.898Z,18.55
2019-05-16T05:07:51.571Z,20.35
2019-05-16T05:12:55.267Z,20.90
2019-05-16T05:18:00.582Z,19.70
2019-05-16T05:23:04.102Z,20.02
2019-05-16T05:28:10.044Z,19.32
2019-05-16T05:33:13.370Z,22.75
2019-05-16T05:38:17.027Z,23.07
2019-05-16T05:43:21.983Z,21.90
2019-05-16T05:48:25.884Z,28.27
2019-05-16T05:53:30.013Z,33.48
2019-05-16T05:58:33.931Z,27.82
2019-05-16T06:03:39.742Z,27.10
2019-05-16T06:08:42.705Z,28.67
2019-05-16T06:13:49.806Z,29.80
2019-05-16T06:18:52.673Z,27.60
2019-05-16T06:23:56.276Z,28.77
2019-05-16T06:29:00.686Z,28.45
2019-05-16T06:34:08.332Z,28.52
2019-05-16T06:39:11.466Z,30.40
2019-05-16T06:44:15.294Z,31.23
2019-05-16T06:49:19.723Z,33.30
2019-05-16T06:54:25.362Z,27.27
2019-05-16T06:59:29.773Z,29.75
2019-05-16T07:04:33.757Z,42.20
2019-05-16T07:09:37.722Z,26.55
2019-05-16T07:14:41.296Z,28.55
2019-05-16T07:19:45.668Z,37.50
2019-05-16T07:24:50.507Z,21.42
2019-05-16T07:29:57.666Z,34.23
2019-05-16T07:35:00.592Z,21.35
2019-05-16T07:40:16.061Z,20.60
2019-05-16T07:45:11.480Z,26.55
2019-05-16T07:50:15.512Z,24.63
2019-05-16T07:55:20.855Z,104.95
2019-05-16T08:00:41.956Z,22.82
2019-05-16T08:05:33.357Z,41.05
2019-05-16T08:15:41.043Z,27.27
2019-05-16T08:20:45.500Z,23.77
2019-05-16T08:25:50.674Z,22.13
2019-05-16T08:30:55.340Z,24.07
2019-05-16T08:36:04.817Z,25.00
2019-05-16T08:41:12.911Z,22.45
2019-05-16T08:46:12.498Z,24.32
2019-05-16T08:50:10.071Z,38.23
2019-05-16T08:51:21.973Z,20.05
2019-05-16T08:56:22.622Z,17.60
2019-05-16T09:01:27.033Z,20.35
2019-05-16T09:06:31.913Z,21.50
2019-05-16T09:11:44.070Z,18.98
2019-05-16T09:16:41.605Z,20.32
2019-05-16T09:21:47.434Z,18.07
2019-05-16T09:26:53.551Z,20.50
2019-05-16T09:32:09.035Z,18.92
2019-05-16T09:37:02.940Z,18.23
2019-05-16T09:42:08.212Z,17.48
2019-05-16T09:47:12.304Z,19.70
2019-05-16T09:52:16.559Z,20.57
2019-05-16T09:57:20.525Z,25.40
2019-05-16T10:02:24.211Z,32.73
2019-05-16T10:07:28.464Z,19.40
2019-05-16T10:12:32.311Z,17.35
2019-05-16T10:17:37.009Z,18.00
2019-05-16T10:22:41.554Z,14.80
2019-05-16T10:27:47.359Z,18.25
2019-05-16T10:32:50.360Z,22.25
2019-05-16T10:37:57.480Z,18.07
2019-05-16T10:43:00.208Z,18.10
2019-05-16T10:48:03.988Z,17.48
2019-05-16T10:53:27.947Z,16.82
2019-05-16T10:58:12.921Z,17.12
2019-05-16T11:03:17.152Z,16.10
2019-05-16T11:08:21.193Z,18.98
2019-05-16T11:13:27.702Z,19.57
2019-05-16T11:18:30.234Z,17.85
2019-05-16T11:23:36.710Z,15.20
2019-05-16T11:28:39.180Z,17.90
2019-05-16T11:33:42.740Z,18.67
2019-05-16T11:38:47.628Z,13.75
2019-05-16T11:43:51.564Z,16.95
2019-05-16T11:48:56.965Z,15.85
2019-05-16T11:54:00.815Z,17.32
2019-05-16T11:59:04.729Z,16.95
2019-05-16T12:04:08.431Z,15.43
2019-05-16T12:09:12.117Z,16.27
2019-05-16T12:14:16.560Z,37.48
2019-05-16T12:19:20.690Z,19.23
2019-05-16T12:24:33.159Z,15.40
2019-05-16T12:29:30.249Z,26.17
2019-05-16T12:34:36.750Z,15.50
2019-05-16T12:39:40.109Z,14.38
2019-05-16T12:44:43.783Z,17.12
2019-05-16T12:49:47.444Z,16.95
2019-05-16T12:54:51.165Z,14.00
2019-05-16T12:59:57.008Z,19.35
2019-05-16T13:05:00.200Z,17.67
2019-05-16T13:10:06.582Z,16.50
2019-05-16T13:15:11.332Z,15.35
2019-05-16T13:20:17.306Z,17.12
2019-05-16T13:25:21.328Z,12.68
2019-05-16T13:30:28.163Z,14.43
2019-05-16T13:35:31.944Z,14.90
2019-05-16T13:40:35.622Z,14.83
2019-05-16T13:45:40.605Z,14.73
2019-05-16T13:50:44.157Z,13.90
2019-05-16T14:25:38.241Z,12.25
2019-05-16T14:30:42.023Z,12.50
2019-05-16T14:35:47.260Z,11.43
2019-05-16T14:40:51.122Z,9.93
2019-05-16T14:45:57.068Z,12.20
2019-05-16T14:51:03.355Z,14.23
2019-05-16T14:56:29.715Z,13.00
2019-05-16T15:01:37.743Z,13.08
2019-05-16T15:12:29.005Z,14.95
2019-05-16T15:17:35.945Z,12.78
2019-05-16T15:23:28.334Z,12.05
2019-05-16T15:34:47.656Z,11.28
2019-05-16T15:39:54.277Z,10.82
2019-05-16T15:50:29.246Z,13.65
2019-05-16T15:55:59.577Z,14.18
2019-05-16T16:01:38.148Z,14.85
2019-05-16T16:07:21.734Z,14.20
2019-05-16T16:12:26.628Z,16.30
2019-05-16T16:17:54.378Z,16.25
2019-05-16T16:23:07.029Z,15.98
2019-05-16T16:28:10.731Z,17.23
2019-05-16T16:33:22.521Z,15.88
2019-05-16T16:38:19.756Z,16.60
2019-05-16T16:43:24.278Z,19.65
2019-05-16T16:48:28.202Z,18.98
2019-05-16T16:53:33.448Z,20.27
2019-05-16T16:59:06.600Z,16.62
2019-05-16T17:09:50.208Z,19.70
2019-05-16T17:14:59.992Z,17.48
2019-05-16T17:20:04.203Z,17.80
2019-05-16T17:25:14.225Z,22.98
2019-05-16T18:15:50.694Z,31.12
2019-05-16T18:21:00.865Z,34.30
2019-05-16T18:26:02.000Z,34.95
2019-05-16T18:31:04.984Z,37.58
2019-05-16T18:36:08.841Z,43.23
2019-05-16T18:41:12.527Z,40.35
2019-05-16T18:46:16.321Z,43.78
2019-05-16T18:51:20.322Z,41.33
2019-05-16T18:56:27.038Z,42.70
2019-05-16T19:01:29.984Z,41.75
2019-05-16T19:06:33.718Z,40.67
2019-05-16T19:11:37.382Z,46.28
2019-05-16T19:16:40.935Z,48.95
2019-05-16T19:21:44.547Z,52.30
2019-05-16T19:26:48.442Z,49.75
2019-05-16T19:31:57.141Z,49.45
2019-05-16T19:37:00.707Z,58.33
2019-05-16T19:42:06.379Z,60.15
2019-05-16T19:47:09.930Z,49.53
2019-05-16T19:52:49.859Z,50.73
2019-05-16T19:57:53.487Z,58.02
2019-05-16T20:02:57.096Z,59.58
2019-05-16T20:08:00.850Z,58.45
2019-05-16T20:13:04.699Z,68.12
2019-05-16T20:18:08.313Z,65.78
2019-05-16T20:23:16.608Z,65.45
2019-05-16T20:28:18.917Z,59.30
2019-05-16T20:33:22.570Z,56.40
2019-05-16T20:38:26.842Z,57.38
2019-05-16T20:43:33.024Z,54.65
2019-05-16T20:48:36.956Z,61.30
2019-05-16T20:53:40.750Z,64.97
2019-05-16T20:58:48.356Z,65.67
2019-05-16T21:03:49.757Z,59.77
2019-05-16T21:08:53.315Z,57.95
2019-05-16T21:13:57.210Z,61.65
2019-05-16T21:19:02.441Z,58.87
2019-05-16T21:24:06.959Z,57.25
2019-05-16T21:29:11.114Z,55.85
2019-05-16T21:34:19.108Z,49.65
2019-05-16T21:39:21.601Z,48.28
2019-05-16T21:44:25.986Z,61.75
2019-05-16T21:49:31.209Z,54.23
2019-05-16T21:54:36.684Z,57.15
2019-05-16T21:59:40.100Z,59.50
2019-05-16T22:04:43.791Z,64.67
2019-05-16T22:09:47.463Z,65.12
2019-05-16T22:14:52.647Z,65.65
2019-05-16T22:19:56.460Z,71.87
2019-05-16T22:25:00.217Z,72.10
2019-05-16T22:30:07.080Z,65.35
2019-05-16T22:35:11.342Z,71.10
2019-05-16T22:40:17.056Z,63.52
2019-05-16T22:45:22.415Z,73.25
2019-05-16T22:50:27.147Z,68.60
2019-05-16T22:55:31.879Z,68.05
2019-05-16T23:00:39.053Z,66.33
2019-05-16T23:05:40.910Z,59.93
2019-05-16T23:10:44.589Z,60.80
2019-05-16T23:15:49.292Z,61.08
2019-05-16T23:20:53.172Z,57.85
2019-05-16T23:25:57.084Z,60.90
2019-05-16T23:31:01.024Z,61.92
2019-05-16T23:36:06.994Z,58.48
2019-05-16T23:41:10.143Z,58.68
2019-05-16T23:46:13.722Z,55.60
2019-05-16T23:51:17.298Z,52.40
2019-05-16T23:56:20.875Z,57.35
